Time;durP1;ratioP1;P1;durP2;ratioP2;P2;SDS_P1;SDS_P2;PMS_P1;PMS_P2;Temp;Humidity;BMP_temperature;BMP_pressure;BME280_temperature;BME280_humidity;BME280_pressure;Samples;Min_cycle;Max_cycle;Signal;HPM_P1;HPM_P2
2022/07/11 00:02:07;;;;;;;5.57;5.18;;;21.80;57.00;;;;;;5049916;28;20195;-84
2022/07/11 00:04:36;;;;;;;5.45;4.97;;;21.80;57.60;;;;;;5051648;28;20211;-84
2022/07/11 00:07:02;;;;;;;4.60;4.13;;;21.80;57.30;;;;;;5053520;28;20219;-84
2022/07/11 00:09:29;;;;;;;4.60;4.30;;;21.70;57.80;;;;;;5053066;28;20188;-84
2022/07/11 00:11:55;;;;;;;4.95;4.55;;;21.70;57.30;;;;;;5053525;28;20216;-85
2022/07/11 00:14:24;;;;;;;5.07;4.70;;;21.80;57.60;;;;;;5048960;28;20212;-85
2022/07/11 00:16:51;;;;;;;4.68;4.38;;;21.90;57.60;;;;;;5045813;28;20242;-85
2022/07/11 00:19:17;;;;;;;4.70;4.50;;;21.80;58.20;;;;;;5046868;28;20235;-84
2022/07/11 00:21:42;;;;;;;4.40;4.10;;;21.80;58.40;;;;;;5052159;28;20688;-85
2022/07/11 00:24:08;;;;;;;4.82;4.53;;;21.80;58.90;;;;;;5051420;28;20235;-85
2022/07/11 00:26:37;;;;;;;4.32;4.03;;;21.70;59.30;;;;;;5052269;28;20551;-85
2022/07/11 00:29:04;;;;;;;4.43;4.13;;;21.70;61.60;;;;;;5053966;28;20184;-85
2022/07/11 00:31:30;;;;;;;4.60;4.20;;;21.60;61.80;;;;;;5053971;28;20205;-84
2022/07/11 00:33:56;;;;;;;4.93;4.45;;;21.50;61.90;;;;;;5054690;28;20204;-85
2022/07/11 00:36:22;;;;;;;5.10;4.70;;;21.50;61.80;;;;;;5054375;28;20203;-84
2022/07/11 00:38:47;;;;;;;4.75;4.45;;;21.50;62.50;;;;;;5044428;28;20208;-85
2022/07/11 00:41:13;;;;;;;4.65;4.38;;;21.50;62.20;;;;;;5049908;28;20208;-85
2022/07/11 00:43:40;;;;;;;4.70;4.43;;;21.60;61.40;;;;;;5048434;28;20554;-85
2022/07/11 00:46:07;;;;;;;5.25;4.55;;;21.60;61.20;;;;;;5046582;28;20185;-85
2022/07/11 00:48:35;;;;;;;4.65;4.40;;;21.60;60.90;;;;;;5045410;28;20354;-85
2022/07/11 00:51:02;;;;;;;5.38;5.00;;;21.60;60.10;;;;;;5045660;28;20196;-85
2022/07/11 00:53:29;;;;;;;4.82;4.45;;;21.60;59.40;;;;;;5053616;28;20258;-84
2022/07/11 00:55:55;;;;;;;5.22;4.82;;;21.70;59.80;;;;;;5051355;28;20188;-85
2022/07/11 00:58:22;;;;;;;5.15;4.85;;;21.70;59.00;;;;;;5052549;28;20702;-85
2022/07/11 01:00:48;;;;;;;5.05;4.75;;;21.70;58.80;;;;;;5058672;28;20818;-85
2022/07/11 01:03:14;;;;;;;5.25;4.78;;;21.60;58.20;;;;;;5053228;28;20267;-85
2022/07/11 01:05:39;;;;;;;4.82;4.53;;;21.40;58.00;;;;;;5047460;28;20219;-86
2022/07/11 01:08:05;;;;;;;4.70;4.40;;;21.30;58.20;;;;;;5051062;28;20255;-85
2022/07/11 01:10:32;;;;;;;4.68;4.38;;;21.40;58.10;;;;;;5047716;28;20207;-85
2022/07/11 01:12:58;;;;;;;4.90;4.50;;;21.40;57.60;;;;;;5045513;28;20226;-84
2022/07/11 01:15:24;;;;;;;4.82;4.53;;;21.40;58.20;;;;;;5047643;28;20176;-85
2022/07/11 01:17:52;;;;;;;5.03;4.72;;;21.30;61.00;;;;;;5049938;28;20208;-85
2022/07/11 01:20:24;;;;;;;4.85;4.50;;;21.40;59.20;;;;;;5043461;28;20209;-84
2022/07/11 01:22:56;;;;;;;4.88;4.57;;;21.40;59.10;;;;;;5046374;28;20702;-84
2022/07/11 01:25:31;;;;;;;4.93;4.63;;;21.40;60.00;;;;;;5041368;28;20403;-85
2022/07/11 01:27:58;;;;;;;4.97;4.68;;;21.30;61.70;;;;;;5046260;28;20187;-85
2022/07/11 01:30:26;;;;;;;5.82;5.43;;;21.00;64.80;;;;;;5043675;28;20265;-85
2022/07/11 01:32:52;;;;;;;5.93;5.55;;;20.80;65.50;;;;;;5053456;28;20196;-84
2022/07/11 01:35:18;;;;;;;6.03;5.65;;;20.80;63.70;;;;;;5053579;28;20685;-85
2022/07/11 01:37:44;;;;;;;5.93;5.55;;;20.80;63.90;;;;;;5045974;28;20187;-85
2022/07/11 01:40:11;;;;;;;5.95;5.53;;;20.80;63.90;;;;;;5042056;28;20207;-85
2022/07/11 01:42:36;;;;;;;6.15;5.75;;;20.60;64.30;;;;;;5051651;28;20217;-85
2022/07/11 01:45:03;;;;;;;6.47;6.10;;;20.60;64.70;;;;;;5062093;28;20182;-82
2022/07/11 01:47:28;;;;;;;6.25;5.95;;;20.40;65.60;;;;;;5064791;28;20198;-83
2022/07/11 01:49:55;;;;;;;6.72;6.30;;;20.40;65.50;;;;;;5050358;28;20299;-85
2022/07/11 01:52:21;;;;;;;6.93;6.50;;;20.50;65.60;;;;;;5046437;28;20188;-85
2022/07/11 01:54:47;;;;;;;6.78;6.47;;;20.30;65.90;;;;;;5056113;28;20176;-85
2022/07/11 01:57:13;;;;;;;6.53;6.13;;;20.10;67.00;;;;;;5060968;28;20191;-85
2022/07/11 01:59:38;;;;;;;6.25;5.78;;;20.10;66.70;;;;;;5048360;28;20669;-85
2022/07/11 02:02:04;;;;;;;6.75;6.15;;;20.10;66.50;;;;;;5040583;28;20212;-85
2022/07/11 02:04:30;;;;;;;6.80;6.40;;;20.20;65.70;;;;;;5041314;28;20287;-85
2022/07/11 02:06:56;;;;;;;6.72;6.22;;;20.30;65.90;;;;;;5044545;28;20211;-86
2022/07/11 02:09:22;;;;;;;6.78;6.38;;;20.30;67.50;;;;;;5047450;28;20195;-83
2022/07/11 02:11:47;;;;;;;6.43;6.13;;;20.40;66.00;;;;;;5048274;28;20213;-84
2022/07/11 02:14:13;;;;;;;6.03;5.68;;;20.40;64.50;;;;;;5043825;28;20191;-84
2022/07/11 02:16:39;;;;;;;6.60;6.18;;;20.60;63.90;;;;;;5031751;28;20181;-83
2022/07/11 02:19:06;;;;;;;6.55;6.25;;;20.60;63.60;;;;;;5044359;28;20252;-83
2022/07/11 02:21:32;;;;;;;7.10;6.63;;;20.60;64.20;;;;;;5048495;28;20204;-85
2022/07/11 02:23:58;;;;;;;6.43;6.03;;;20.70;63.50;;;;;;5044570;28;20279;-83
2022/07/11 02:26:24;;;;;;;6.50;6.10;;;20.80;64.10;;;;;;5042749;28;20209;-84
2022/07/11 02:28:49;;;;;;;6.45;6.15;;;20.70;65.20;;;;;;5045242;28;20203;-86
2022/07/11 02:31:18;;;;;;;6.68;6.28;;;20.60;64.00;;;;;;5035697;28;20212;-84
2022/07/11 02:33:44;;;;;;;6.25;5.93;;;20.70;64.30;;;;;;5052111;28;20273;-84
2022/07/11 02:36:10;;;;;;;6.30;6.00;;;20.60;65.00;;;;;;5042342;28;20188;-83
2022/07/11 02:38:36;;;;;;;6.63;6.22;;;20.60;63.60;;;;;;5045823;28;20188;-85
2022/07/11 02:41:02;;;;;;;6.18;5.88;;;20.70;63.10;;;;;;5041157;28;20300;-84
2022/07/11 02:43:28;;;;;;;6.47;6.07;;;20.80;62.70;;;;;;5060250;28;20185;-85
2022/07/11 02:45:54;;;;;;;5.93;5.63;;;21.00;61.60;;;;;;5060458;28;20184;-84
2022/07/11 02:48:20;;;;;;;6.22;5.82;;;21.00;62.70;;;;;;5057887;28;20278;-85
2022/07/11 02:50:46;;;;;;;5.95;5.55;;;21.00;62.20;;;;;;5047912;28;20251;-84
2022/07/11 02:53:12;;;;;;;6.05;5.75;;;21.00;63.10;;;;;;5067167;28;20523;-85
2022/07/11 02:55:37;;;;;;;6.00;5.70;;;21.10;63.30;;;;;;5050456;28;20188;-85
2022/07/11 02:58:03;;;;;;;6.25;5.85;;;21.00;63.10;;;;;;5053828;28;20192;-84
2022/07/11 03:00:29;;;;;;;6.38;5.97;;;20.90;63.70;;;;;;5059424;28;20231;-84
2022/07/11 03:02:55;;;;;;;6.47;6.18;;;20.90;64.50;;;;;;5055377;28;20638;-84
2022/07/11 03:05:21;;;;;;;6.15;5.85;;;20.90;64.30;;;;;;5056257;28;20317;-84
2022/07/11 03:07:46;;;;;;;6.55;6.07;;;20.90;63.90;;;;;;5053952;28;20188;-85
2022/07/11 03:10:12;;;;;;;6.30;6.00;;;20.80;65.60;;;;;;5054211;28;20525;-85
2022/07/11 03:12:38;;;;;;;6.82;6.43;;;20.70;66.30;;;;;;5048869;28;20223;-84
2022/07/11 03:15:05;;;;;;;6.40;6.10;;;20.60;67.30;;;;;;5053237;28;20675;-85
2022/07/11 03:17:31;;;;;;;6.28;5.97;;;20.50;67.60;;;;;;5056611;28;20211;-84
2022/07/11 03:19:57;;;;;;;7.00;6.60;;;20.50;67.30;;;;;;5052775;28;20208;-85
2022/07/11 03:22:23;;;;;;;6.78;6.38;;;20.40;67.80;;;;;;5052978;28;20188;-85
2022/07/11 03:24:52;;;;;;;6.55;6.15;;;20.30;68.50;;;;;;5053731;28;20199;-84
2022/07/11 03:27:18;;;;;;;6.88;6.22;;;20.30;67.80;;;;;;5050748;28;20184;-85
2022/07/11 03:29:43;;;;;;;6.13;5.70;;;20.40;67.10;;;;;;5050586;28;20193;-85
2022/07/11 03:32:09;;;;;;;7.10;6.40;;;20.40;67.70;;;;;;5051469;28;20673;-86
2022/07/11 03:34:36;;;;;;;6.38;5.97;;;20.30;68.00;;;;;;5049073;28;20223;-85
2022/07/11 03:37:02;;;;;;;7.43;6.80;;;20.20;67.40;;;;;;5054007;28;20647;-85
2022/07/11 03:39:28;;;;;;;7.13;6.55;;;20.20;68.30;;;;;;5050261;28;20203;-85
2022/07/11 03:41:54;;;;;;;7.05;6.65;;;20.10;69.30;;;;;;5052423;28;20208;-85
2022/07/11 03:44:20;;;;;;;6.28;5.97;;;19.80;70.90;;;;;;5053703;28;20195;-85
2022/07/11 03:46:48;;;;;;;7.55;6.97;;;19.80;70.80;;;;;;5053312;28;20184;-85
2022/07/11 03:49:14;;;;;;;6.93;6.53;;;19.90;71.00;;;;;;5052116;28;20224;-85
2022/07/11 03:51:40;;;;;;;6.10;5.80;;;19.90;70.00;;;;;;5048032;28;20576;-85
2022/07/11 03:54:06;;;;;;;6.72;6.30;;;20.10;69.70;;;;;;5052423;28;20213;-85
2022/07/11 03:56:31;;;;;;;6.72;6.32;;;20.20;69.40;;;;;;5054012;28;20254;-85
2022/07/11 03:58:57;;;;;;;6.80;6.30;;;20.20;68.70;;;;;;5049783;28;20185;-84
2022/07/11 04:01:23;;;;;;;7.20;6.72;;;20.20;67.80;;;;;;5050424;28;20211;-84
2022/07/11 04:03:49;;;;;;;7.32;6.82;;;20.10;67.80;;;;;;5045710;28;20214;-84
2022/07/11 04:06:15;;;;;;;6.75;6.30;;;20.00;68.10;;;;;;5051331;28;20191;-86
2022/07/11 04:08:42;;;;;;;6.75;6.35;;;19.80;68.10;;;;;;5050798;28;20182;-85
2022/07/11 04:11:08;;;;;;;6.68;6.28;;;19.80;68.00;;;;;;5048297;28;20203;-85
2022/07/11 04:13:34;;;;;;;7.75;7.22;;;19.80;67.90;;;;;;5052027;28;20273;-84
2022/07/11 04:15:59;;;;;;;6.93;6.43;;;19.80;67.80;;;;;;5049446;28;20205;-85
2022/07/11 04:18:25;;;;;;;6.55;6.15;;;19.80;67.10;;;;;;5043256;28;20183;-85
2022/07/11 04:20:52;;;;;;;7.03;6.55;;;19.80;67.20;;;;;;5049471;28;20282;-85
2022/07/11 04:23:18;;;;;;;7.03;6.63;;;19.90;66.70;;;;;;5046819;28;20204;-85
2022/07/11 04:25:43;;;;;;;6.65;6.05;;;20.00;66.10;;;;;;5052203;28;20241;-84
2022/07/11 04:28:09;;;;;;;6.78;5.95;;;20.10;66.40;;;;;;5051284;28;20188;-85
2022/07/11 04:30:35;;;;;;;6.95;6.35;;;20.20;67.30;;;;;;5051326;28;20570;-84
2022/07/11 04:33:01;;;;;;;7.38;6.97;;;20.20;66.80;;;;;;5060991;28;20217;-83
2022/07/11 04:35:27;;;;;;;6.72;6.30;;;20.20;65.80;;;;;;5072911;28;20183;-82
2022/07/11 04:37:53;;;;;;;6.85;6.35;;;20.30;65.30;;;;;;5060178;28;20250;-85
2022/07/11 04:40:20;;;;;;;7.03;6.43;;;20.30;64.40;;;;;;5048684;28;20258;-85
2022/07/11 04:42:46;;;;;;;6.88;6.28;;;20.30;64.00;;;;;;5050134;28;20183;-84
2022/07/11 04:45:12;;;;;;;7.50;6.90;;;20.40;65.10;;;;;;5058169;28;20223;-84
2022/07/11 04:47:38;;;;;;;7.15;6.70;;;20.30;67.40;;;;;;5058878;28;20556;-85
2022/07/11 04:50:04;;;;;;;7.00;6.50;;;20.10;65.70;;;;;;5049367;28;20203;-85
2022/07/11 04:52:32;;;;;;;7.10;6.60;;;20.10;65.90;;;;;;5049481;28;20205;-85
2022/07/11 04:54:58;;;;;;;7.45;6.80;;;19.80;67.80;;;;;;5049453;28;20182;-85
2022/07/11 04:57:23;;;;;;;6.40;5.90;;;19.70;68.60;;;;;;5050974;28;20250;-85
2022/07/11 04:59:49;;;;;;;6.55;6.05;;;19.70;67.80;;;;;;5043997;28;20214;-85
2022/07/11 05:02:17;;;;;;;6.45;6.05;;;19.80;67.70;;;;;;5050264;28;20191;-85
2022/07/11 05:04:43;;;;;;;7.15;6.55;;;19.70;68.60;;;;;;5046790;28;20183;-84
2022/07/11 05:07:09;;;;;;;6.50;6.20;;;19.80;68.80;;;;;;5051949;28;20195;-85
2022/07/11 05:09:35;;;;;;;7.30;6.60;;;19.70;69.30;;;;;;5049940;28;20274;-85
2022/07/11 05:12:01;;;;;;;6.38;5.85;;;19.60;69.40;;;;;;5048999;28;20273;-86
2022/07/11 05:14:26;;;;;;;6.38;5.95;;;19.60;69.10;;;;;;5046947;28;20190;-85
2022/07/11 05:16:52;;;;;;;6.43;5.93;;;19.80;68.70;;;;;;5046781;28;20226;-85
2022/07/11 05:19:17;;;;;;;8.52;6.78;;;19.90;68.10;;;;;;5046839;28;20673;-85
2022/07/11 05:21:43;;;;;;;6.25;5.82;;;20.00;67.80;;;;;;5050602;28;20231;-84
2022/07/11 05:24:09;;;;;;;6.57;6.18;;;20.10;67.20;;;;;;5047355;28;20231;-84
2022/07/11 05:26:35;;;;;;;7.03;6.38;;;20.10;67.10;;;;;;5043284;28;20188;-85
2022/07/11 05:29:00;;;;;;;7.13;6.55;;;20.30;66.70;;;;;;5048272;28;20283;-85
2022/07/11 05:31:26;;;;;;;6.65;6.20;;;20.30;66.50;;;;;;5053047;28;20225;-86
2022/07/11 05:33:52;;;;;;;7.97;7.18;;;20.30;66.40;;;;;;5044976;28;20239;-84
2022/07/11 05:36:17;;;;;;;7.40;6.80;;;20.00;64.80;;;;;;5051052;28;20195;-84
2022/07/11 05:38:43;;;;;;;7.45;6.70;;;19.60;66.90;;;;;;5047954;28;20460;-86
2022/07/11 05:41:09;;;;;;;7.32;6.82;;;19.60;67.60;;;;;;5045053;28;20225;-83
2022/07/11 05:43:35;;;;;;;7.53;6.82;;;19.60;67.80;;;;;;5059103;28;20186;-84
2022/07/11 05:46:04;;;;;;;8.82;7.30;;;19.80;67.70;;;;;;5063202;28;20277;-83
2022/07/11 05:48:30;;;;;;;6.85;6.35;;;19.90;68.10;;;;;;5056090;28;20649;-83
2022/07/11 05:50:56;;;;;;;7.18;6.47;;;19.90;67.60;;;;;;5054297;28;20237;-84
2022/07/11 05:53:21;;;;;;;7.15;6.65;;;19.80;66.90;;;;;;5052769;28;20304;-85
2022/07/11 05:55:48;;;;;;;7.22;6.55;;;19.80;67.10;;;;;;5051757;28;20177;-85
2022/07/11 05:58:13;;;;;;;7.20;6.43;;;19.80;66.70;;;;;;5056246;28;20686;-84
2022/07/11 06:00:39;;;;;;;7.22;6.53;;;19.90;67.00;;;;;;5053766;28;20212;-85
2022/07/11 06:03:05;;;;;;;7.03;6.28;;;19.90;67.80;;;;;;5054206;28;20187;-84
2022/07/11 06:05:30;;;;;;;7.95;7.13;;;19.90;68.20;;;;;;5056640;28;20218;-84
2022/07/11 06:10:40;;;;;;;7.20;6.60;;;20.00;69.70;;;;;;5052494;28;20291;-84
2022/07/11 06:13:06;;;;;;;7.82;7.32;;;20.20;68.10;;;;;;5056636;28;20221;-84
2022/07/11 06:15:32;;;;;;;8.00;7.15;;;20.30;69.10;;;;;;5059440;28;20631;-85
2022/07/11 06:17:57;;;;;;;8.65;7.85;;;20.40;68.80;;;;;;5060988;28;20186;-84
2022/07/11 06:20:23;;;;;;;7.22;6.82;;;20.40;68.70;;;;;;5043689;28;20210;-84
2022/07/11 06:22:49;;;;;;;7.80;7.30;;;20.50;69.20;;;;;;5062736;28;20499;-86
2022/07/11 06:25:15;;;;;;;7.90;7.25;;;20.60;68.40;;;;;;5063604;28;20209;-85
2022/07/11 06:27:41;;;;;;;7.95;7.30;;;20.70;66.70;;;;;;5062716;28;20290;-83
2022/07/11 06:30:07;;;;;;;8.02;7.28;;;20.70;66.30;;;;;;5063102;28;20225;-84
2022/07/11 06:32:32;;;;;;;8.73;7.95;;;20.60;68.10;;;;;;5063401;28;20688;-87
2022/07/11 06:34:58;;;;;;;8.93;8.32;;;20.50;68.70;;;;;;5059323;28;20194;-84
2022/07/11 06:37:24;;;;;;;8.63;7.55;;;20.40;68.50;;;;;;5071075;28;20183;-84
2022/07/11 06:39:49;;;;;;;7.28;6.82;;;20.40;69.00;;;;;;5063414;28;20273;-88
2022/07/11 06:42:15;;;;;;;8.25;7.65;;;20.50;68.30;;;;;;5064083;28;20202;-84
2022/07/11 06:44:41;;;;;;;8.23;7.53;;;20.50;69.20;;;;;;5062865;28;20659;-85
2022/07/11 06:47:06;;;;;;;8.32;7.72;;;20.70;69.10;;;;;;5060497;28;20183;-85
2022/07/11 06:49:32;;;;;;;7.68;7.07;;;20.80;67.90;;;;;;5063255;28;20658;-85
2022/07/11 06:51:58;;;;;;;7.93;7.45;;;21.00;67.30;;;;;;5062936;28;20218;-86
2022/07/11 06:54:23;;;;;;;7.60;7.10;;;21.10;66.70;;;;;;5056070;28;20643;-84
2022/07/11 06:56:52;;;;;;;8.13;7.53;;;21.20;64.70;;;;;;5062560;28;20253;-84
2022/07/11 06:59:18;;;;;;;8.52;7.70;;;21.20;64.50;;;;;;5063396;28;20187;-84
2022/07/11 07:01:43;;;;;;;8.23;7.50;;;21.20;64.40;;;;;;5062449;28;20231;-85
2022/07/11 07:04:09;;;;;;;7.82;7.22;;;21.30;63.90;;;;;;5049276;28;20226;-84
2022/07/11 07:06:35;;;;;;;8.02;7.40;;;21.40;63.30;;;;;;5061647;28;20192;-85
2022/07/11 07:09:03;;;;;;;26.13;9.85;;;21.40;63.20;;;;;;5057583;28;20234;-85
2022/07/11 07:11:28;;;;;;;8.40;7.80;;;21.40;63.30;;;;;;5061418;28;20218;-87
2022/07/11 07:13:54;;;;;;;8.38;7.65;;;21.50;63.00;;;;;;5060299;28;20247;-84
2022/07/11 07:16:20;;;;;;;7.60;6.93;;;21.50;63.00;;;;;;5050213;28;20192;-85
2022/07/11 07:18:47;;;;;;;7.30;6.78;;;21.40;61.70;;;;;;5058909;28;20196;-84
2022/07/11 07:21:13;;;;;;;7.65;7.05;;;21.50;61.70;;;;;;5044812;28;20207;-85
2022/07/11 07:23:38;;;;;;;9.40;7.72;;;21.50;61.50;;;;;;5061861;28;20212;-84
2022/07/11 07:26:04;;;;;;;8.25;7.65;;;21.60;60.70;;;;;;5061677;28;20212;-84
2022/07/11 07:28:31;;;;;;;8.52;7.68;;;21.30;61.20;;;;;;5045798;28;20271;-84
2022/07/11 07:30:56;;;;;;;8.30;7.60;;;21.30;62.50;;;;;;5054886;28;20261;-83
2022/07/11 07:33:22;;;;;;;7.97;7.38;;;21.20;62.80;;;;;;5070754;28;20196;-84
2022/07/11 07:35:48;;;;;;;7.38;6.82;;;21.20;62.80;;;;;;5059779;28;20651;-84
2022/07/11 07:38:14;;;;;;;7.22;6.72;;;21.50;61.50;;;;;;5063198;28;20194;-85
2022/07/11 07:40:39;;;;;;;17.60;8.55;;;21.60;61.60;;;;;;5064589;28;20279;-84
2022/07/11 07:43:06;;;;;;;13.15;7.80;;;21.80;60.30;;;;;;5062324;28;20204;-84
2022/07/11 07:45:32;;;;;;;9.75;7.50;;;22.00;59.50;;;;;;5056719;28;20183;-81
2022/07/11 07:47:58;;;;;;;8.20;7.70;;;22.00;58.90;;;;;;5060906;28;20180;-84
2022/07/11 07:50:24;;;;;;;10.18;8.60;;;21.90;60.10;;;;;;5062820;28;20211;-83
2022/07/11 07:52:50;;;;;;;8.60;7.80;;;21.70;59.90;;;;;;5059422;28;20196;-84
2022/07/11 07:55:16;;;;;;;19.20;10.40;;;21.90;60.40;;;;;;5059069;28;20184;-83
2022/07/11 07:57:42;;;;;;;8.65;7.80;;;22.20;59.10;;;;;;5062772;28;20243;-83
2022/07/11 08:02:53;;;;;;;8.15;7.65;;;22.40;58.30;;;;;;5056418;28;20215;-83
2022/07/11 08:05:19;;;;;;;7.32;6.82;;;22.40;58.00;;;;;;5057572;28;20197;-83
2022/07/11 08:07:45;;;;;;;8.27;7.70;;;22.40;58.10;;;;;;5061791;28;20206;-86
2022/07/11 08:10:12;;;;;;;8.75;7.85;;;22.40;58.00;;;;;;5061717;28;20204;-84
2022/07/11 08:12:38;;;;;;;8.00;7.50;;;22.40;58.30;;;;;;5063336;28;20220;-84
2022/07/11 08:15:05;;;;;;;8.43;7.65;;;22.60;58.20;;;;;;5049867;28;20180;-85
2022/07/11 08:17:30;;;;;;;8.88;8.10;;;22.80;58.70;;;;;;5057577;28;20188;-86
2022/07/11 08:19:56;;;;;;;8.38;7.78;;;22.70;58.40;;;;;;5053990;28;20295;-83
2022/07/11 08:22:22;;;;;;;8.00;7.47;;;22.90;57.60;;;;;;5061350;28;20188;-83
2022/07/11 08:24:47;;;;;;;8.13;7.63;;;22.80;58.00;;;;;;5062259;28;20184;-84
2022/07/11 08:27:13;;;;;;;7.72;7.07;;;22.90;56.90;;;;;;5055884;28;20192;-83
2022/07/11 08:29:39;;;;;;;7.85;7.30;;;22.90;57.20;;;;;;5068915;28;20184;-84
2022/07/11 08:32:05;;;;;;;8.35;7.68;;;23.20;56.00;;;;;;5064698;28;20227;-83
2022/07/11 08:34:30;;;;;;;10.23;9.43;;;23.20;56.80;;;;;;5062544;28;20240;-83
2022/07/11 08:36:56;;;;;;;8.32;7.72;;;23.40;56.10;;;;;;5059249;28;20218;-83
2022/07/11 08:39:22;;;;;;;8.40;7.80;;;23.40;55.90;;;;;;5052531;28;20276;-83
2022/07/11 08:41:48;;;;;;;8.55;7.82;;;23.40;56.40;;;;;;5056121;28;20208;-83
2022/07/11 08:44:14;;;;;;;7.50;7.00;;;23.30;57.30;;;;;;5059172;28;20193;-84
2022/07/11 08:46:43;;;;;;;8.48;7.93;;;23.30;57.50;;;;;;5063233;28;20607;-84
2022/07/11 08:49:12;;;;;;;7.13;6.78;;;23.40;57.70;;;;;;5064166;28;20195;-84
2022/07/11 08:51:38;;;;;;;7.72;7.32;;;23.30;57.80;;;;;;5060342;28;20223;-83
2022/07/11 08:54:04;;;;;;;7.47;6.93;;;23.20;57.90;;;;;;5052751;28;20196;-83
2022/07/11 08:56:31;;;;;;;7.97;7.38;;;22.80;57.80;;;;;;5057055;28;20197;-83
2022/07/11 08:59:02;;;;;;;9.30;7.00;;;22.80;59.00;;;;;;5054963;28;20184;-84
2022/07/11 09:01:33;;;;;;;8.55;7.95;;;22.60;59.20;;;;;;5056663;28;20200;-84
2022/07/11 09:04:00;;;;;;;10.50;8.32;;;22.60;59.20;;;;;;5052944;28;20183;-85
2022/07/11 09:06:27;;;;;;;16.98;9.93;;;22.70;58.40;;;;;;5057902;28;20192;-84
2022/07/11 09:09:00;;;;;;;8.15;7.45;;;22.80;57.60;;;;;;5061990;28;20168;-85
2022/07/11 09:11:27;;;;;;;8.07;7.47;;;23.10;57.50;;;;;;5067797;28;20204;-84
2022/07/11 09:13:52;;;;;;;8.27;7.45;;;23.30;55.50;;;;;;5068865;28;20180;-83
2022/07/11 09:16:21;;;;;;;7.40;7.00;;;23.30;55.10;;;;;;5062095;28;20185;-83
2022/07/11 09:18:47;;;;;;;7.68;7.05;;;23.40;53.50;;;;;;5053095;28;20215;-84
2022/07/11 09:26:46;;;;;;;7.68;7.28;;;23.90;52.90;;;;;;5054881;28;20274;-84
2022/07/11 09:29:18;;;;;;;7.28;6.80;;;24.20;52.70;;;;;;5058262;28;20191;-84
2022/07/11 09:31:44;;;;;;;7.07;6.68;;;24.40;50.90;;;;;;5054532;28;20250;-85
2022/07/11 09:34:13;;;;;;;8.30;7.60;;;24.60;50.40;;;;;;5054684;28;20601;-85
2022/07/11 09:36:43;;;;;;;11.90;11.00;;;24.60;49.80;;;;;;5049365;28;20176;-84
2022/07/11 09:39:14;;;;;;;7.63;7.20;;;24.60;49.90;;;;;;5060084;28;20177;-84
2022/07/11 09:41:40;;;;;;;6.70;6.30;;;24.90;50.30;;;;;;5055825;28;20215;-84
2022/07/11 09:44:11;;;;;;;6.53;5.97;;;25.10;48.50;;;;;;5057113;28;20275;-84
2022/07/11 09:46:37;;;;;;;7.03;6.53;;;25.20;49.20;;;;;;5052256;28;20176;-84
2022/07/11 09:49:03;;;;;;;6.95;6.28;;;25.10;47.60;;;;;;5054232;28;20339;-84
2022/07/11 09:51:32;;;;;;;6.63;5.38;;;25.40;47.50;;;;;;5055022;28;20212;-85
2022/07/11 09:53:58;;;;;;;6.40;6.00;;;25.60;45.90;;;;;;5060084;28;20180;-85
2022/07/11 09:56:35;;;;;;;6.28;5.72;;;25.50;46.20;;;;;;5059546;28;20184;-84
2022/07/11 09:59:03;;;;;;;6.38;5.80;;;25.50;45.50;;;;;;5056541;28;20176;-84
2022/07/11 10:01:29;;;;;;;5.72;5.28;;;25.60;45.80;;;;;;5055020;28;20196;-84
2022/07/11 10:03:55;;;;;;;5.50;5.10;;;26.00;45.00;;;;;;5050707;28;20265;-85
2022/07/11 10:06:24;;;;;;;5.70;5.28;;;26.40;43.10;;;;;;5059934;28;20262;-83
2022/07/11 10:08:53;;;;;;;7.78;6.03;;;25.90;43.60;;;;;;5064695;28;20203;-83
2022/07/11 10:11:20;;;;;;;10.52;6.93;;;25.80;44.70;;;;;;5068075;28;20276;-82
2022/07/11 10:13:48;;;;;;;6.63;6.15;;;25.80;45.20;;;;;;5064038;28;20224;-84
2022/07/11 10:16:35;;;;;;;6.20;5.75;;;25.80;44.60;;;;;;5052118;28;20283;-85
2022/07/11 10:19:20;;;;;;;6.03;5.72;;;25.60;44.60;;;;;;5055378;28;20669;-84
2022/07/11 10:21:51;;;;;;;8.63;5.88;;;25.40;45.00;;;;;;5064243;28;20200;-85
2022/07/11 10:24:35;;;;;;;5.65;5.25;;;25.70;45.20;;;;;;5061247;28;20196;-84
2022/07/11 10:27:28;;;;;;;6.20;5.90;;;25.90;42.40;;;;;;5052391;28;20673;-84
2022/07/11 10:29:54;;;;;;;7.05;6.45;;;26.20;43.30;;;;;;5048517;28;20387;-84
2022/07/11 10:32:20;;;;;;;6.32;5.93;;;26.70;42.10;;;;;;5054938;28;20205;-84
2022/07/11 10:35:04;;;;;;;6.07;5.68;;;26.60;40.10;;;;;;5051316;28;20184;-84
2022/07/11 10:37:30;;;;;;;6.32;5.93;;;26.60;40.30;;;;;;5050681;28;20173;-84
2022/07/11 10:39:59;;;;;;;5.60;5.20;;;26.90;40.30;;;;;;5048971;28;20219;-84
2022/07/11 10:42:38;;;;;;;5.90;5.60;;;26.80;41.20;;;;;;5058035;28;20191;-84
2022/07/11 10:45:08;;;;;;;5.47;5.18;;;26.40;40.80;;;;;;5054280;28;20180;-84
2022/07/11 10:47:44;;;;;;;5.85;5.03;;;26.30;40.90;;;;;;5053075;28;20181;-84
2022/07/11 10:50:21;;;;;;;6.50;5.03;;;26.10;41.00;;;;;;5053269;28;20254;-84
2022/07/11 10:52:56;;;;;;;5.55;5.28;;;26.30;41.90;;;;;;5058333;28;20321;-84
2022/07/11 10:55:40;;;;;;;5.55;5.25;;;26.40;42.80;;;;;;5053043;28;20177;-84
2022/07/11 10:58:21;;;;;;;5.47;5.18;;;26.60;42.10;;;;;;5046604;28;20180;-83
2022/07/11 11:01:06;;;;;;;5.35;5.05;;;26.50;42.00;;;;;;5049117;28;20200;-83
2022/07/11 11:03:32;;;;;;;6.10;5.68;;;26.90;42.10;;;;;;5052815;28;20211;-83
2022/07/11 11:05:58;;;;;;;5.57;4.97;;;26.90;41.80;;;;;;5056051;28;20667;-84
2022/07/11 11:08:40;;;;;;;6.22;5.82;;;27.50;41.60;;;;;;5058650;28;20176;-83
2022/07/11 11:11:06;;;;;;;5.88;5.57;;;28.10;40.00;;;;;;5058717;28;20214;-83
2022/07/11 11:13:37;;;;;;;13.30;7.80;;;28.00;39.60;;;;;;5057624;28;20204;-84
2022/07/11 11:16:19;;;;;;;6.22;5.82;;;27.80;40.50;;;;;;5056766;28;20181;-83
2022/07/11 11:18:45;;;;;;;5.53;5.32;;;28.00;40.90;;;;;;5059306;28;20206;-83
2022/07/11 11:21:16;;;;;;;5.90;5.60;;;27.80;39.70;;;;;;5058213;28;20628;-84
2022/07/11 11:23:44;;;;;;;6.60;6.20;;;27.80;42.30;;;;;;5061015;28;20293;-83
2022/07/11 11:26:16;;;;;;;6.60;6.00;;;27.80;41.90;;;;;;5061100;28;20212;-82
2022/07/11 11:29:02;;;;;;;6.53;6.03;;;27.70;42.20;;;;;;5056238;28;20211;-82
2022/07/11 11:31:29;;;;;;;6.72;6.15;;;27.60;42.10;;;;;;5053050;28;20219;-83
2022/07/11 11:33:57;;;;;;;5.82;5.43;;;27.60;42.30;;;;;;5051568;28;20189;-82
2022/07/11 11:36:24;;;;;;;6.03;5.63;;;27.20;42.60;;;;;;5061589;28;20337;-83
2022/07/11 11:38:51;;;;;;;5.60;5.30;;;27.30;42.00;;;;;;5057237;28;20185;-84
2022/07/11 11:41:28;;;;;;;5.95;5.65;;;27.60;40.70;;;;;;5056005;28;20207;-83
2022/07/11 11:43:59;;;;;;;6.28;5.88;;;27.70;39.70;;;;;;5059165;28;20744;-82
2022/07/11 11:46:26;;;;;;;5.78;5.47;;;28.00;39.20;;;;;;5054801;28;20199;-83
2022/07/11 11:49:03;;;;;;;5.80;5.40;;;28.10;39.10;;;;;;5052458;28;20266;-83
2022/07/11 11:51:30;;;;;;;5.50;5.20;;;28.10;38.40;;;;;;5063511;28;20679;-83
2022/07/11 11:53:59;;;;;;;6.43;5.93;;;28.70;38.10;;;;;;5056603;28;20200;-83
2022/07/11 11:56:33;;;;;;;5.70;5.40;;;29.10;36.80;;;;;;5055900;28;20192;-84
2022/07/11 11:59:04;;;;;;;5.93;5.53;;;29.30;37.50;;;;;;5048067;28;20183;-83
2022/07/11 12:01:32;;;;;;;5.97;5.68;;;29.00;38.10;;;;;;5054825;28;20204;-84
2022/07/11 12:04:00;;;;;;;6.47;5.97;;;29.50;36.50;;;;;;5058435;28;20184;-84
2022/07/11 12:06:29;;;;;;;6.65;6.15;;;29.90;35.40;;;;;;5045833;28;20224;-84
2022/07/11 12:09:09;;;;;;;5.75;5.35;;;30.00;35.50;;;;;;5059784;28;20259;-84
2022/07/11 12:11:39;;;;;;;5.78;5.25;;;30.10;35.80;;;;;;5048356;28;20184;-83
2022/07/11 12:14:08;;;;;;;5.50;5.10;;;28.90;36.90;;;;;;5067567;28;20179;-84
2022/07/11 12:16:44;;;;;;;5.78;5.28;;;28.80;38.30;;;;;;5065837;28;20210;-85
2022/07/11 12:19:12;;;;;;;5.47;5.13;;;28.70;39.00;;;;;;5056830;28;20185;-83
2022/07/11 12:21:46;;;;;;;5.90;5.47;;;28.80;39.40;;;;;;5054570;28;20264;-84
2022/07/11 12:24:16;;;;;;;5.32;5.00;;;29.30;37.10;;;;;;5050302;28;20550;-83
2022/07/11 12:26:42;;;;;;;5.22;4.85;;;29.20;36.10;;;;;;5051550;28;20185;-83
2022/07/11 12:29:12;;;;;;;5.50;5.00;;;29.30;35.90;;;;;;5056246;28;20551;-83
2022/07/11 12:31:46;;;;;;;5.07;4.78;;;29.50;36.00;;;;;;5061020;28;20200;-84
2022/07/11 12:34:13;;;;;;;5.00;4.72;;;29.90;35.30;;;;;;5057467;28;20370;-84
2022/07/11 12:36:39;;;;;;;5.00;4.72;;;30.10;35.90;;;;;;5053674;28;20208;-84
2022/07/11 12:39:05;;;;;;;5.90;5.40;;;30.00;36.50;;;;;;5059317;28;20180;-83
2022/07/11 12:41:33;;;;;;;5.47;5.15;;;29.90;36.10;;;;;;5053721;28;20204;-83
2022/07/11 12:46:46;;;;;;;4.85;4.55;;;30.30;35.00;;;;;;5052202;28;20194;-84
2022/07/11 12:49:16;;;;;;;5.10;4.70;;;30.30;34.40;;;;;;5057615;28;20179;-83
2022/07/11 12:51:44;;;;;;;4.82;4.60;;;30.30;35.00;;;;;;5053659;28;20263;-83
2022/07/11 12:54:11;;;;;;;4.68;4.47;;;30.40;34.40;;;;;;5055790;28;20207;-82
2022/07/11 12:56:38;;;;;;;4.82;4.43;;;30.10;35.40;;;;;;5068310;28;20207;-83
2022/07/11 12:59:05;;;;;;;5.28;5.00;;;30.10;35.00;;;;;;5062694;28;20192;-83
2022/07/11 13:01:32;;;;;;;5.35;4.97;;;29.80;36.30;;;;;;5052502;28;20192;-83